Main page
METAR-TAF:

METAR-TAF

Airports :

King Abdulaziz International Airport

Jeddah, Saudi Arabia

latitude: 21-42N, longitude: 039-11E, elevation: 15 m

Current weather observation

The report was made 1 hour and 1 minutes ago, at 06:00 UTC
Wind 6 kt from the North
Temperature 33°C
Humidity 53%
Pressure 1003 hPa
Visibility 10 km or more
no clouds below 1500 m and no cumulonimbus

METAR: OEJN 190600Z 36006KT CAVOK 33/22 Q1003 NOSIG

Time: 10:01 (07:01 UTC)

Forecast

The report was made 2 hours and 1 minutes ago, at 05:00 UTC
Forecast valid from 19 at 06 UTC to 20 at 12 UTC
Wind 6 kt from the West/Northwest with gusts up to 16 kt
Visibility: 7000 m
Becoming
from 19 at 18 UTC to 19 at 20 UTC
Wind 10 kt from the North/Northeast

TAF: OEJN 190500Z 1906/2012 30006G16KT 7000 NSC BECMG 1918/1920 02010KT

Weather observations and forecasts of more than 4000 airports (METAR and TAF reports).

The available stations are represented by yellow and red dots on the map.

Hover mouse over dot to see the name of the station.

Then click to see weather observations and forecasts.

To change the map : click on the green buttons with a black cross to zoom in, on the green button with a dash to zoom out, or on the green arrows for adjacent maps.


METAR-TAF: